F/V Harvestor — WDC8229 — position and weather

sailwx.info

Track history (hours):
 
Tides and Currents Weather Stations Pressure Air Temp Water Temp Dewpoint Dewpoint Depression Visibility Wind Speed Wind Dir Waves Ship Positions

F/V Harvestor

Owner: F/V HARVESTOR INC., EDMONDS, WA. More information available from US FCC via Universal Licensing System and Coast Guard Vessel Documentation Center.

Last reported at 2014-Dec-19 15:33 UTC. Time now 2014-Dec-19 15:46 UTC.
Position N 47°38' W 122°23'.

Length 40 m.

Type: Fishing. MMSI: 367083650.

Date/timePositionNaut miles runAvg speedWind from/ knotsBaromVisibWave heightAir tempDewpointWater temp
2014-Dec-19 15:33N 47°38' W 122°23'0 0.0
2014-Dec-19 14:33N 47°38' W 122°23'0 0.0
2014-Dec-19 13:33N 47°38' W 122°23'0 0.0
2014-Dec-19 12:33N 47°38' W 122°23'0 0.0
2014-Dec-19 11:33N 47°38' W 122°23'0 0.0
2014-Dec-19 10:33N 47°38' W 122°23'0 0.0
2014-Dec-19 09:33N 47°38' W 122°23'0 0.0
2014-Dec-19 08:33N 47°38' W 122°23'0 0.0
2014-Dec-19 07:33N 47°38' W 122°23'0 0.0
2014-Dec-19 06:33N 47°38' W 122°23'0 0.0
2014-Dec-19 05:33N 47°38' W 122°23'0 0.0
2014-Dec-19 04:33N 47°38' W 122°23'0 0.0
2014-Dec-19 03:33N 47°38' W 122°23'0 0.0
2014-Dec-19 02:33N 47°38' W 122°23'0 0.0
2014-Dec-19 01:33N 47°38' W 122°23'0 0.0
2014-Dec-19 00:33N 47°38' W 122°23'7 6.6
2014-Dec-18 23:33N 47°34' W 122°31'1 0.9
2014-Dec-18 22:33N 47°34' W 122°33'0 0.0
2014-Dec-18 21:33N 47°34' W 122°33'0 0.0
2014-Dec-18 20:33N 47°34' W 122°33'0 0.0
2014-Dec-18 19:33N 47°34' W 122°33'0 0.0
2014-Dec-18 18:34N 47°34' W 122°33'0 0.0
2014-Dec-18 17:33N 47°34' W 122°33'4 3.6
2014-Dec-18 16:33N 47°35' W 122°27'4 3.9
2014-Dec-18 15:34N 47°38' W 122°23'0 0.0
2014-Dec-18 14:33N 47°38' W 122°23'0 0.0
2014-Dec-18 13:33N 47°38' W 122°23'0 0.0
2014-Dec-18 12:33N 47°38' W 122°23'0 0.0
2014-Dec-18 11:33N 47°38' W 122°23'0 0.0
2014-Dec-18 10:33N 47°38' W 122°23'0 0.0
2014-Dec-18 09:33N 47°38' W 122°23'0 0.0
2014-Dec-18 08:33N 47°38' W 122°23'0 0.0
2014-Dec-18 07:33N 47°38' W 122°23'0 0.0
2014-Dec-18 06:33N 47°38' W 122°23'0 0.0
2014-Dec-18 05:33N 47°38' W 122°23'0 0.0
2014-Dec-18 04:33N 47°38' W 122°23'0 0.0
2014-Dec-18 03:33N 47°38' W 122°23'0 0.0
2014-Dec-18 02:33N 47°38' W 122°23'0 0.0
2014-Dec-18 01:33N 47°38' W 122°23'0 0.0
2014-Dec-18 00:34N 47°38' W 122°23'0 0.0
2014-Dec-17 23:33N 47°38' W 122°23'0 0.0
2014-Dec-17 22:33N 47°38' W 122°23'0 0.0
2014-Dec-17 21:33N 47°38' W 122°23'0 0.0
2014-Dec-17 20:33N 47°38' W 122°23'0 0.0
2014-Dec-17 19:34N 47°38' W 122°23'0 0.0
2014-Dec-17 18:33N 47°38' W 122°23'0 0.0
2014-Dec-17 17:33N 47°38' W 122°23'0 0.0
2014-Dec-17 16:33N 47°38' W 122°23'0 0.0
2014-Dec-17 15:33N 47°38' W 122°23'0 0.0
2014-Dec-17 14:34N 47°38' W 122°23'0 0.0
2014-Dec-17 13:33N 47°38' W 122°23'0 0.0
2014-Dec-17 12:33N 47°38' W 122°23'0 0.0
2014-Dec-17 11:34N 47°38' W 122°23'0 0.0
2014-Dec-17 10:33N 47°38' W 122°23'0 0.0
2014-Dec-17 09:33N 47°38' W 122°23'0 0.0
2014-Dec-17 08:33N 47°38' W 122°23'0 0.0
2014-Dec-17 07:33N 47°38' W 122°23'0 0.0
2014-Dec-17 06:33N 47°38' W 122°23'0 0.0
2014-Dec-17 05:33N 47°38' W 122°23'0 0.0
2014-Dec-17 04:33N 47°38' W 122°23'0 0.0
2014-Dec-17 03:33N 47°38' W 122°23'3 3.2
2014-Dec-17 02:33N 47°40' W 122°27'8 8.1
2014-Dec-17 01:34N 47°48' W 122°24'8 8.3
2014-Dec-17 00:33N 47°56' W 122°21'8 7.8
2014-Dec-16 23:33N 48°03' W 122°24'9 8.1
2014-Dec-16 22:28N 48°10' W 122°32'8 7.4
2014-Dec-16 21:27N 48°18' W 122°30'7 3.2
2014-Dec-16 19:12N 48°24' W 122°34'0 0.0
2014-Dec-16 15:15N 48°24' W 122°34'0 0.0
2014-Dec-16 14:33N 48°24' W 122°34'0 0.0
2014-Dec-16 13:25N 48°24' W 122°34'0 0.0
2014-Dec-16 12:11N 48°24' W 122°34'0 0.0
2014-Dec-16 11:31N 48°24' W 122°34'0 0.0
2014-Dec-16 10:10N 48°24' W 122°34'0 0.0
2014-Dec-16 09:33N 48°24' W 122°34'0 0.0
2014-Dec-16 08:32N 48°24' W 122°34'0 0.0
2014-Dec-16 05:30N 48°24' W 122°34'0 0.0
2014-Dec-16 04:08N 48°24' W 122°34'3 4.5
2014-Dec-16 03:29N 48°21' W 122°33'6 6.2
2014-Dec-16 02:33N 48°16' W 122°32'11 7.1
2014-Dec-16 01:03N 48°06' W 122°28'4 7.8
2014-Dec-16 00:31N 48°03' W 122°23'7 7.3
2014-Dec-15 23:33N 47°56' W 122°21'7 6.8
2014-Dec-15 22:33N 47°49' W 122°24'8 8.0
2014-Dec-15 21:33N 47°41' W 122°26'4 4.2
2014-Dec-15 20:33N 47°38' W 122°23'0 0.0
2014-Dec-15 19:33N 47°38' W 122°23'0 0.0
2014-Dec-15 18:32N 47°38' W 122°23'0 0.0
2014-Dec-15 17:34N 47°38' W 122°23'0 0.0
2014-Dec-15 16:34N 47°38' W 122°23'0 0.0
2014-Dec-15 15:33N 47°38' W 122°23'0 0.0
2014-Dec-15 14:33N 47°38' W 122°23'0 0.0
2014-Dec-15 13:33N 47°38' W 122°23'0 0.0
2014-Dec-15 12:33N 47°38' W 122°23'0 0.0
2014-Dec-15 11:33N 47°38' W 122°23'0 0.0
2014-Dec-15 10:33N 47°38' W 122°23'0 0.0
2014-Dec-15 09:34N 47°38' W 122°23'0 0.0
2014-Dec-15 08:34N 47°38' W 122°23'0 0.0
2014-Dec-15 07:33N 47°38' W 122°23'0 0.0
2014-Dec-15 06:34N 47°38' W 122°23'0 0.0
2014-Dec-15 05:33N 47°38' W 122°23'0 0.0
2014-Dec-15 04:33N 47°38' W 122°23'0 0.0
2014-Dec-15 03:33N 47°38' W 122°23'4 3.6
2014-Dec-15 02:33N 47°41' W 122°26'8 8.4
2014-Dec-15 01:34N 47°49' W 122°24'9 9.2
2014-Dec-15 00:33N 47°58' W 122°21'8 7.9
2014-Dec-14 23:33N 48°05' W 122°27'9 8.5
2014-Dec-14 22:32N 48°12' W 122°33'7 7.5
2014-Dec-14 21:33N 48°20' W 122°31'4 0.2
2014-Dec-14 04:21N 48°23' W 122°35'7 8.0
2014-Dec-14 03:32N 48°17' W 122°30'9 7.5
2014-Dec-14 02:23N 48°09' W 122°32'6 7.6
2014-Dec-14 01:33N 48°04' W 122°26'8 7.6
2014-Dec-14 00:33N 47°57' W 122°20'7 7.1
2014-Dec-13 23:33N 47°51' W 122°24'8 8.2
2014-Dec-13 22:33N 47°43' W 122°26'5 5.1
2014-Dec-13 21:33N 47°38' W 122°23'0 0.0
2014-Dec-13 20:33N 47°38' W 122°23'0 0.0
2014-Dec-13 19:33N 47°38' W 122°23'0 0.0
2014-Dec-13 18:33N 47°38' W 122°23'0 0.0
2014-Dec-13 17:34N 47°38' W 122°23'0 0.0
2014-Dec-13 16:33N 47°38' W 122°23'0 0.0
2014-Dec-13 15:33N 47°38' W 122°23'0 0.0
2014-Dec-13 14:33N 47°38' W 122°23'0 0.0
2014-Dec-13 13:33N 47°38' W 122°23'0 0.0
2014-Dec-13 12:33N 47°38' W 122°23'0 0.0
2014-Dec-13 11:33N 47°38' W 122°23'0 0.0
2014-Dec-13 10:33N 47°38' W 122°23'0 0.0
2014-Dec-13 09:34N 47°38' W 122°23'0 0.0
2014-Dec-13 08:33N 47°38' W 122°23'0 0.0
2014-Dec-13 07:33N 47°38' W 122°23'0 0.0
2014-Dec-13 06:33N 47°38' W 122°23'0 0.0
2014-Dec-13 05:34N 47°38' W 122°23'0 0.0
2014-Dec-13 04:33N 47°38' W 122°23'0 0.0
2014-Dec-13 03:33N 47°38' W 122°23'0 0.0
2014-Dec-13 02:34N 47°38' W 122°23'0 0.0
2014-Dec-13 01:34N 47°38' W 122°23'0 0.0
2014-Dec-13 00:33N 47°38' W 122°23'0 0.0
2014-Dec-12 23:33N 47°38' W 122°23'0 0.0
2014-Dec-12 22:33N 47°38' W 122°23'0 0.0
2014-Dec-12 21:33N 47°38' W 122°23'0 0.0
2014-Dec-12 20:34N 47°38' W 122°23'0 0.0
2014-Dec-12 19:33N 47°38' W 122°23'0 0.0
2014-Dec-12 18:33N 47°38' W 122°23'0 0.0
2014-Dec-12 17:33N 47°38' W 122°23'0 0.0
2014-Dec-12 16:33N 47°38' W 122°23'0 0.0
2014-Dec-12 15:33N 47°38' W 122°23'0 0.0
2014-Dec-12 14:33N 47°38' W 122°23'0 0.0
2014-Dec-12 13:33N 47°38' W 122°23'0 0.0
2014-Dec-12 12:34N 47°38' W 122°23'0 0.0
2014-Dec-12 11:33N 47°38' W 122°23'0 0.0
2014-Dec-12 10:33N 47°38' W 122°23'0 0.0
2014-Dec-12 09:33N 47°38' W 122°23'0 0.0
2014-Dec-12 08:33N 47°38' W 122°23'0 0.0
2014-Dec-12 07:33N 47°38' W 122°23'0 0.0
2014-Dec-12 06:33N 47°38' W 122°23'0 0.0
2014-Dec-12 05:34N 47°38' W 122°23'0 0.0
2014-Dec-12 04:34N 47°38' W 122°23'0 0.0
2014-Dec-12 03:33N 47°38' W 122°23'0 0.0
2014-Dec-12 02:34N 47°38' W 122°23'0 0.0
2014-Dec-12 01:33N 47°38' W 122°23'0 0.1
2014-Dec-12 00:33N 47°38' W 122°23'7 7.2
2014-Dec-11 23:33N 47°34' W 122°32'0 0.2
2014-Dec-11 22:33N 47°34' W 122°33'0 0.0
2014-Dec-11 21:33N 47°34' W 122°33'0 0.0
2014-Dec-11 20:33N 47°34' W 122°33'0 0.0
2014-Dec-11 19:33N 47°34' W 122°33'0 0.0
2014-Dec-11 18:33N 47°34' W 122°33'0 0.0
2014-Dec-11 17:33N 47°34' W 122°33'5 5.0
2014-Dec-11 16:33N 47°36' W 122°26'2 2.5
2014-Dec-11 15:34N 47°38' W 122°23'0 0.0
2014-Dec-11 14:33N 47°38' W 122°23'0 0.0
2014-Dec-11 13:33N 47°38' W 122°23'0 0.0
2014-Dec-11 12:33N 47°38' W 122°23'0 0.0
2014-Dec-11 11:33N 47°38' W 122°23'0 0.0
2014-Dec-11 10:33N 47°38' W 122°23'0 0.0
2014-Dec-11 09:33N 47°38' W 122°23'0 0.0
2014-Dec-11 08:33N 47°38' W 122°23'0 0.0
2014-Dec-11 07:34N 47°38' W 122°23'0 0.0
2014-Dec-11 06:33N 47°38' W 122°23'0 0.0
2014-Dec-11 05:33N 47°38' W 122°23'0 0.0
2014-Dec-11 04:33N 47°38' W 122°23'0 0.0
2014-Dec-11 03:33N 47°38' W 122°23'0 0.0
2014-Dec-11 02:34N 47°38' W 122°23'0 0.0
2014-Dec-11 01:34N 47°38' W 122°23'0 0.0
2014-Dec-11 00:33N 47°38' W 122°23'0 0.0
2014-Dec-10 23:34N 47°38' W 122°23'0 0.0
2014-Dec-10 22:33N 47°38' W 122°23'0 0.0
2014-Dec-10 21:33N 47°38' W 122°23'0 0.0
2014-Dec-10 20:32N 47°38' W 122°23'0 0.0
2014-Dec-10 19:33N 47°38' W 122°23'0 0.0
2014-Dec-10 18:33N 47°38' W 122°23'0 0.0
2014-Dec-10 17:33N 47°38' W 122°23'0 0.0
2014-Dec-10 16:33N 47°38' W 122°23'0 0.0
2014-Dec-10 15:34N 47°38' W 122°23'0 0.0
2014-Dec-10 14:33N 47°38' W 122°23'0 0.0
2014-Dec-10 13:33N 47°38' W 122°23'0 0.0
2014-Dec-10 12:33N 47°38' W 122°23'0 0.0
2014-Dec-10 11:33N 47°38' W 122°23'0 0.0
2014-Dec-10 10:32N 47°38' W 122°23'0 0.0
2014-Dec-10 09:33N 47°38' W 122°23'0 0.0
2014-Dec-10 08:33N 47°38' W 122°23'0 0.0
2014-Dec-10 07:34N 47°38' W 122°23'0 0.0
2014-Dec-10 06:33N 47°38' W 122°23'0 0.0
2014-Dec-10 05:34N 47°38' W 122°23'0 0.0
2014-Dec-10 04:33N 47°38' W 122°23'0 0.0
2014-Dec-10 03:33N 47°38' W 122°23'0 0.0
2014-Dec-10 02:34N 47°38' W 122°23'0 0.0
2014-Dec-10 01:33N 47°38' W 122°23'0 0.0
2014-Dec-10 00:34N 47°38' W 122°23'0 0.0
2014-Dec-09 23:33N 47°38' W 122°23'6 6.4
2014-Dec-09 22:33N 47°34' W 122°31'1 1.2
2014-Dec-09 21:33N 47°34' W 122°33'0 0.0
2014-Dec-09 20:33N 47°34' W 122°33'0 0.0
2014-Dec-09 19:33N 47°34' W 122°33'0 0.0
2014-Dec-09 18:33N 47°34' W 122°33'0 0.0
2014-Dec-09 18:27N 47°34' W 122°33'0 0.0
2014-Dec-09 17:33N 47°34' W 122°33'0 0.0
2014-Dec-09 17:32N 47°34' W 122°33'6 6.0
2014-Dec-09 16:33N 47°37' W 122°25'0 8.0
2014-Dec-09 16:32N 47°37' W 122°24'  
Track history (hours):
 
Tides and Currents Weather Stations Pressure Air Temp Water Temp Dewpoint Dewpoint Depression Visibility Wind Speed Wind Dir Waves Ship Positions

F/V Harvestor

Owner: F/V HARVESTOR INC., EDMONDS, WA. More information available from US FCC via Universal Licensing System and Coast Guard Vessel Documentation Center.

Last reported at 2014-Dec-19 15:33 UTC. Time now 2014-Dec-19 15:46 UTC.
Position N 47°38' W 122°23'.

Length 40 m.

Type: Fishing. MMSI: 367083650.

Date/timePositionNaut miles runAvg speedWind from/ knotsBaromVisibWave heightAir tempDewpointWater temp
2014-Dec-19 15:33N 47°38' W 122°23'0 0.0
2014-Dec-19 14:33N 47°38' W 122°23'0 0.0
2014-Dec-19 13:33N 47°38' W 122°23'0 0.0
2014-Dec-19 12:33N 47°38' W 122°23'0 0.0
2014-Dec-19 11:33N 47°38' W 122°23'0 0.0
2014-Dec-19 10:33N 47°38' W 122°23'0 0.0
2014-Dec-19 09:33N 47°38' W 122°23'0 0.0
2014-Dec-19 08:33N 47°38' W 122°23'0 0.0
2014-Dec-19 07:33N 47°38' W 122°23'0 0.0
2014-Dec-19 06:33N 47°38' W 122°23'0 0.0
2014-Dec-19 05:33N 47°38' W 122°23'0 0.0
2014-Dec-19 04:33N 47°38' W 122°23'0 0.0
2014-Dec-19 03:33N 47°38' W 122°23'0 0.0
2014-Dec-19 02:33N 47°38' W 122°23'0 0.0
2014-Dec-19 01:33N 47°38' W 122°23'0 0.0
2014-Dec-19 00:33N 47°38' W 122°23'7 6.6
2014-Dec-18 23:33N 47°34' W 122°31'1 0.9
2014-Dec-18 22:33N 47°34' W 122°33'0 0.0
2014-Dec-18 21:33N 47°34' W 122°33'0 0.0
2014-Dec-18 20:33N 47°34' W 122°33'0 0.0
2014-Dec-18 19:33N 47°34' W 122°33'0 0.0
2014-Dec-18 18:34N 47°34' W 122°33'0 0.0
2014-Dec-18 17:33N 47°34' W 122°33'4 3.6
2014-Dec-18 16:33N 47°35' W 122°27'4 3.9
2014-Dec-18 15:34N 47°38' W 122°23'0 0.0
2014-Dec-18 14:33N 47°38' W 122°23'0 0.0
2014-Dec-18 13:33N 47°38' W 122°23'0 0.0
2014-Dec-18 12:33N 47°38' W 122°23'0 0.0
2014-Dec-18 11:33N 47°38' W 122°23'0 0.0
2014-Dec-18 10:33N 47°38' W 122°23'0 0.0
2014-Dec-18 09:33N 47°38' W 122°23'0 0.0
2014-Dec-18 08:33N 47°38' W 122°23'0 0.0
2014-Dec-18 07:33N 47°38' W 122°23'0 0.0
2014-Dec-18 06:33N 47°38' W 122°23'0 0.0
2014-Dec-18 05:33N 47°38' W 122°23'0 0.0
2014-Dec-18 04:33N 47°38' W 122°23'0 0.0
2014-Dec-18 03:33N 47°38' W 122°23'0 0.0
2014-Dec-18 02:33N 47°38' W 122°23'0 0.0
2014-Dec-18 01:33N 47°38' W 122°23'0 0.0
2014-Dec-18 00:34N 47°38' W 122°23'0 0.0
2014-Dec-17 23:33N 47°38' W 122°23'0 0.0
2014-Dec-17 22:33N 47°38' W 122°23'0 0.0
2014-Dec-17 21:33N 47°38' W 122°23'0 0.0
2014-Dec-17 20:33N 47°38' W 122°23'0 0.0
2014-Dec-17 19:34N 47°38' W 122°23'0 0.0
2014-Dec-17 18:33N 47°38' W 122°23'0 0.0
2014-Dec-17 17:33N 47°38' W 122°23'0 0.0
2014-Dec-17 16:33N 47°38' W 122°23'0 0.0
2014-Dec-17 15:33N 47°38' W 122°23'0 0.0
2014-Dec-17 14:34N 47°38' W 122°23'0 0.0
2014-Dec-17 13:33N 47°38' W 122°23'0 0.0
2014-Dec-17 12:33N 47°38' W 122°23'0 0.0
2014-Dec-17 11:34N 47°38' W 122°23'0 0.0
2014-Dec-17 10:33N 47°38' W 122°23'0 0.0
2014-Dec-17 09:33N 47°38' W 122°23'0 0.0
2014-Dec-17 08:33N 47°38' W 122°23'0 0.0
2014-Dec-17 07:33N 47°38' W 122°23'0 0.0
2014-Dec-17 06:33N 47°38' W 122°23'0 0.0
2014-Dec-17 05:33N 47°38' W 122°23'0 0.0
2014-Dec-17 04:33N 47°38' W 122°23'0 0.0
2014-Dec-17 03:33N 47°38' W 122°23'3 3.2
2014-Dec-17 02:33N 47°40' W 122°27'8 8.1
2014-Dec-17 01:34N 47°48' W 122°24'8 8.3
2014-Dec-17 00:33N 47°56' W 122°21'8 7.8
2014-Dec-16 23:33N 48°03' W 122°24'9 8.1
2014-Dec-16 22:28N 48°10' W 122°32'8 7.4
2014-Dec-16 21:27N 48°18' W 122°30'7 3.2
2014-Dec-16 19:12N 48°24' W 122°34'0 0.0
2014-Dec-16 15:15N 48°24' W 122°34'0 0.0
2014-Dec-16 14:33N 48°24' W 122°34'0 0.0
2014-Dec-16 13:25N 48°24' W 122°34'0 0.0
2014-Dec-16 12:11N 48°24' W 122°34'0 0.0
2014-Dec-16 11:31N 48°24' W 122°34'0 0.0
2014-Dec-16 10:10N 48°24' W 122°34'0 0.0
2014-Dec-16 09:33N 48°24' W 122°34'0 0.0
2014-Dec-16 08:32N 48°24' W 122°34'0 0.0
2014-Dec-16 05:30N 48°24' W 122°34'0 0.0
2014-Dec-16 04:08N 48°24' W 122°34'3 4.5
2014-Dec-16 03:29N 48°21' W 122°33'6 6.2
2014-Dec-16 02:33N 48°16' W 122°32'11 7.1
2014-Dec-16 01:03N 48°06' W 122°28'4 7.8
2014-Dec-16 00:31N 48°03' W 122°23'7 7.3
2014-Dec-15 23:33N 47°56' W 122°21'7 6.8
2014-Dec-15 22:33N 47°49' W 122°24'8 8.0
2014-Dec-15 21:33N 47°41' W 122°26'4 4.2
2014-Dec-15 20:33N 47°38' W 122°23'0 0.0
2014-Dec-15 19:33N 47°38' W 122°23'0 0.0
2014-Dec-15 18:32N 47°38' W 122°23'0 0.0
2014-Dec-15 17:34N 47°38' W 122°23'0 0.0
2014-Dec-15 16:34N 47°38' W 122°23'0 0.0
2014-Dec-15 15:33N 47°38' W 122°23'0 0.0
2014-Dec-15 14:33N 47°38' W 122°23'0 0.0
2014-Dec-15 13:33N 47°38' W 122°23'0 0.0
2014-Dec-15 12:33N 47°38' W 122°23'0 0.0
2014-Dec-15 11:33N 47°38' W 122°23'0 0.0
2014-Dec-15 10:33N 47°38' W 122°23'0 0.0
2014-Dec-15 09:34N 47°38' W 122°23'0 0.0
2014-Dec-15 08:34N 47°38' W 122°23'0 0.0
2014-Dec-15 07:33N 47°38' W 122°23'0 0.0
2014-Dec-15 06:34N 47°38' W 122°23'0 0.0
2014-Dec-15 05:33N 47°38' W 122°23'0 0.0
2014-Dec-15 04:33N 47°38' W 122°23'0 0.0
2014-Dec-15 03:33N 47°38' W 122°23'4 3.6
2014-Dec-15 02:33N 47°41' W 122°26'8 8.4
2014-Dec-15 01:34N 47°49' W 122°24'9 9.2
2014-Dec-15 00:33N 47°58' W 122°21'8 7.9
2014-Dec-14 23:33N 48°05' W 122°27'9 8.5
2014-Dec-14 22:32N 48°12' W 122°33'7 7.5
2014-Dec-14 21:33N 48°20' W 122°31'4 0.2
2014-Dec-14 04:21N 48°23' W 122°35'7 8.0
2014-Dec-14 03:32N 48°17' W 122°30'9 7.5
2014-Dec-14 02:23N 48°09' W 122°32'6 7.6
2014-Dec-14 01:33N 48°04' W 122°26'8 7.6
2014-Dec-14 00:33N 47°57' W 122°20'7 7.1
2014-Dec-13 23:33N 47°51' W 122°24'8 8.2
2014-Dec-13 22:33N 47°43' W 122°26'5 5.1
2014-Dec-13 21:33N 47°38' W 122°23'0 0.0
2014-Dec-13 20:33N 47°38' W 122°23'0 0.0
2014-Dec-13 19:33N 47°38' W 122°23'0 0.0
2014-Dec-13 18:33N 47°38' W 122°23'0 0.0
2014-Dec-13 17:34N 47°38' W 122°23'0 0.0
2014-Dec-13 16:33N 47°38' W 122°23'0 0.0
2014-Dec-13 15:33N 47°38' W 122°23'0 0.0
2014-Dec-13 14:33N 47°38' W 122°23'0 0.0
2014-Dec-13 13:33N 47°38' W 122°23'0 0.0
2014-Dec-13 12:33N 47°38' W 122°23'0 0.0
2014-Dec-13 11:33N 47°38' W 122°23'0 0.0
2014-Dec-13 10:33N 47°38' W 122°23'0 0.0
2014-Dec-13 09:34N 47°38' W 122°23'0 0.0
2014-Dec-13 08:33N 47°38' W 122°23'0 0.0
2014-Dec-13 07:33N 47°38' W 122°23'0 0.0
2014-Dec-13 06:33N 47°38' W 122°23'0 0.0
2014-Dec-13 05:34N 47°38' W 122°23'0 0.0
2014-Dec-13 04:33N 47°38' W 122°23'0 0.0
2014-Dec-13 03:33N 47°38' W 122°23'0 0.0
2014-Dec-13 02:34N 47°38' W 122°23'0 0.0
2014-Dec-13 01:34N 47°38' W 122°23'0 0.0
2014-Dec-13 00:33N 47°38' W 122°23'0 0.0
2014-Dec-12 23:33N 47°38' W 122°23'0 0.0
2014-Dec-12 22:33N 47°38' W 122°23'0 0.0
2014-Dec-12 21:33N 47°38' W 122°23'0 0.0
2014-Dec-12 20:34N 47°38' W 122°23'0 0.0
2014-Dec-12 19:33N 47°38' W 122°23'0 0.0
2014-Dec-12 18:33N 47°38' W 122°23'0 0.0
2014-Dec-12 17:33N 47°38' W 122°23'0 0.0
2014-Dec-12 16:33N 47°38' W 122°23'0 0.0
2014-Dec-12 15:33N 47°38' W 122°23'0 0.0
2014-Dec-12 14:33N 47°38' W 122°23'0 0.0
2014-Dec-12 13:33N 47°38' W 122°23'0 0.0
2014-Dec-12 12:34N 47°38' W 122°23'0 0.0
2014-Dec-12 11:33N 47°38' W 122°23'0 0.0
2014-Dec-12 10:33N 47°38' W 122°23'0 0.0
2014-Dec-12 09:33N 47°38' W 122°23'0 0.0
2014-Dec-12 08:33N 47°38' W 122°23'0 0.0
2014-Dec-12 07:33N 47°38' W 122°23'0 0.0
2014-Dec-12 06:33N 47°38' W 122°23'0 0.0
2014-Dec-12 05:34N 47°38' W 122°23'0 0.0
2014-Dec-12 04:34N 47°38' W 122°23'0 0.0
2014-Dec-12 03:33N 47°38' W 122°23'0 0.0
2014-Dec-12 02:34N 47°38' W 122°23'0 0.0
2014-Dec-12 01:33N 47°38' W 122°23'0 0.1
2014-Dec-12 00:33N 47°38' W 122°23'7 7.2
2014-Dec-11 23:33N 47°34' W 122°32'0 0.2
2014-Dec-11 22:33N 47°34' W 122°33'0 0.0
2014-Dec-11 21:33N 47°34' W 122°33'0 0.0
2014-Dec-11 20:33N 47°34' W 122°33'0 0.0
2014-Dec-11 19:33N 47°34' W 122°33'0 0.0
2014-Dec-11 18:33N 47°34' W 122°33'0 0.0
2014-Dec-11 17:33N 47°34' W 122°33'5 5.0
2014-Dec-11 16:33N 47°36' W 122°26'2 2.5
2014-Dec-11 15:34N 47°38' W 122°23'0 0.0
2014-Dec-11 14:33N 47°38' W 122°23'0 0.0
2014-Dec-11 13:33N 47°38' W 122°23'0 0.0
2014-Dec-11 12:33N 47°38' W 122°23'0 0.0
2014-Dec-11 11:33N 47°38' W 122°23'0 0.0
2014-Dec-11 10:33N 47°38' W 122°23'0 0.0
2014-Dec-11 09:33N 47°38' W 122°23'0 0.0
2014-Dec-11 08:33N 47°38' W 122°23'0 0.0
2014-Dec-11 07:34N 47°38' W 122°23'0 0.0
2014-Dec-11 06:33N 47°38' W 122°23'0 0.0
2014-Dec-11 05:33N 47°38' W 122°23'0 0.0
2014-Dec-11 04:33N 47°38' W 122°23'0 0.0
2014-Dec-11 03:33N 47°38' W 122°23'0 0.0
2014-Dec-11 02:34N 47°38' W 122°23'0 0.0
2014-Dec-11 01:34N 47°38' W 122°23'0 0.0
2014-Dec-11 00:33N 47°38' W 122°23'0 0.0
2014-Dec-10 23:34N 47°38' W 122°23'0 0.0
2014-Dec-10 22:33N 47°38' W 122°23'0 0.0
2014-Dec-10 21:33N 47°38' W 122°23'0 0.0
2014-Dec-10 20:32N 47°38' W 122°23'0 0.0
2014-Dec-10 19:33N 47°38' W 122°23'0 0.0
2014-Dec-10 18:33N 47°38' W 122°23'0 0.0
2014-Dec-10 17:33N 47°38' W 122°23'0 0.0
2014-Dec-10 16:33N 47°38' W 122°23'0 0.0
2014-Dec-10 15:34N 47°38' W 122°23'0 0.0
2014-Dec-10 14:33N 47°38' W 122°23'0 0.0
2014-Dec-10 13:33N 47°38' W 122°23'0 0.0
2014-Dec-10 12:33N 47°38' W 122°23'0 0.0
2014-Dec-10 11:33N 47°38' W 122°23'0 0.0
2014-Dec-10 10:32N 47°38' W 122°23'0 0.0
2014-Dec-10 09:33N 47°38' W 122°23'0 0.0
2014-Dec-10 08:33N 47°38' W 122°23'0 0.0
2014-Dec-10 07:34N 47°38' W 122°23'0 0.0
2014-Dec-10 06:33N 47°38' W 122°23'0 0.0
2014-Dec-10 05:34N 47°38' W 122°23'0 0.0
2014-Dec-10 04:33N 47°38' W 122°23'0 0.0
2014-Dec-10 03:33N 47°38' W 122°23'0 0.0
2014-Dec-10 02:34N 47°38' W 122°23'0 0.0
2014-Dec-10 01:33N 47°38' W 122°23'0 0.0
2014-Dec-10 00:34N 47°38' W 122°23'0 0.0
2014-Dec-09 23:33N 47°38' W 122°23'6 6.4
2014-Dec-09 22:33N 47°34' W 122°31'1 1.2
2014-Dec-09 21:33N 47°34' W 122°33'0 0.0
2014-Dec-09 20:33N 47°34' W 122°33'0 0.0
2014-Dec-09 19:33N 47°34' W 122°33'0 0.0
2014-Dec-09 18:33N 47°34' W 122°33'0 0.0
2014-Dec-09 18:27N 47°34' W 122°33'0 0.0
2014-Dec-09 17:33N 47°34' W 122°33'0 0.0
2014-Dec-09 17:32N 47°34' W 122°33'6 6.0
2014-Dec-09 16:33N 47°37' W 122°25'0 8.0
2014-Dec-09 16:32N 47°37' W 122°24'  

Dump ship's entire track history